createdAt,value
2018-08-04T00:02:25.782Z,101394.03
2018-08-04T00:05:31.530Z,101393.47
2018-08-04T00:08:37.022Z,101386.86
2018-08-04T00:11:42.776Z,101391.63
2018-08-04T00:14:48.818Z,101392.52
2018-08-04T00:17:55.227Z,101391.92
2018-08-04T00:21:01.346Z,101387.45
2018-08-04T00:24:07.045Z,101385.71
2018-08-04T00:27:14.203Z,101383.95
2018-08-04T00:33:32.254Z,101388.98
2018-08-04T00:36:38.685Z,101392.82
2018-08-04T00:39:45.011Z,101385.59
2018-08-04T00:42:50.688Z,101386.44
2018-08-04T00:45:56.415Z,101387.31
2018-08-04T00:49:03.997Z,101386.05
2018-08-04T00:52:09.179Z,101394.59
2018-08-04T00:55:15.258Z,101386.67
2018-08-04T00:58:20.709Z,101387.62
2018-08-04T01:01:26.904Z,101387.76
2018-08-04T01:04:33.415Z,101389.05
2018-08-04T01:07:39.468Z,101389.91
2018-08-04T01:10:45.060Z,101391.09
2018-08-04T01:13:49.872Z,101384.12
2018-08-04T01:16:55.607Z,101384.01
2018-08-04T01:20:03.669Z,101383.31
2018-08-04T01:23:09.310Z,101386.88
2018-08-04T01:26:16.161Z,101384.05
2018-08-04T01:29:22.145Z,101373.38
2018-08-04T01:32:28.241Z,101377.42
2018-08-04T01:35:35.685Z,101367.59
2018-08-04T01:38:41.486Z,101365.94
2018-08-04T01:41:46.595Z,101360.49
2018-08-04T01:44:52.043Z,101361.55
2018-08-04T01:47:58.007Z,101364.50
2018-08-04T01:51:03.881Z,101365.84
2018-08-04T01:54:10.457Z,101362.05
2018-08-04T01:57:16.522Z,101365.75
2018-08-04T02:00:24.217Z,101352.70
2018-08-04T02:03:30.442Z,101365.87
2018-08-04T02:06:36.425Z,101360.55
2018-08-04T02:09:41.548Z,101361.12
2018-08-04T02:12:46.909Z,101351.42
2018-08-04T02:15:52.755Z,101358.55
2018-08-04T02:18:58.862Z,101351.55
2018-08-04T02:22:04.712Z,101358.67
2018-08-04T02:25:09.837Z,101358.80
2018-08-04T02:28:15.268Z,101353.00
2018-08-04T02:31:20.634Z,101357.70
2018-08-04T02:34:27.109Z,101355.58
2018-08-04T02:37:33.164Z,101348.34
2018-08-04T02:40:39.118Z,101344.20
2018-08-04T02:43:44.244Z,101334.24
2018-08-04T02:46:49.695Z,101336.27
2018-08-04T02:49:55.166Z,101335.57
2018-08-04T02:53:00.345Z,101328.92
2018-08-04T02:56:05.492Z,101338.05
2018-08-04T02:59:10.629Z,101334.25
2018-08-04T03:02:16.713Z,101342.68
2018-08-04T03:05:22.689Z,101349.92
2018-08-04T03:08:28.816Z,101341.38
2018-08-04T03:11:36.069Z,101334.62
2018-08-04T03:14:41.825Z,101340.30
2018-08-04T03:17:48.814Z,101343.39
2018-08-04T03:20:54.531Z,101333.58
2018-08-04T03:23:59.901Z,101334.74
2018-08-04T03:27:06.966Z,101337.00
2018-08-04T03:30:13.189Z,101340.33
2018-08-04T03:33:19.023Z,101337.84
2018-08-04T03:36:24.162Z,101345.30
2018-08-04T03:39:29.290Z,101348.25
2018-08-04T03:42:34.473Z,101343.52
2018-08-04T03:45:39.837Z,101347.78
2018-08-04T03:48:51.507Z,101341.74
2018-08-04T03:51:57.497Z,101332.97
2018-08-04T03:55:03.345Z,101335.91
2018-08-04T03:58:08.800Z,101340.66
2018-08-04T04:01:14.661Z,101339.12
2018-08-04T04:04:20.008Z,101343.27
2018-08-04T04:07:25.159Z,101345.05
2018-08-04T04:10:30.258Z,101337.83
2018-08-04T04:13:35.730Z,101333.56
2018-08-04T04:16:42.165Z,101338.39
2018-08-04T04:19:49.147Z,101337.20
2018-08-04T04:22:54.674Z,101337.55
2018-08-04T04:25:59.825Z,101338.03
2018-08-04T04:29:05.021Z,101336.02
2018-08-04T04:32:10.173Z,101341.11
2018-08-04T04:35:16.642Z,101350.11
2018-08-04T04:38:22.581Z,101351.06
2018-08-04T04:41:27.731Z,101345.50
2018-08-04T04:44:34.005Z,101342.30
2018-08-04T04:47:39.142Z,101345.84
2018-08-04T04:50:44.281Z,101352.36
2018-08-04T04:53:49.830Z,101352.72
2018-08-04T04:56:55.326Z,101343.51
2018-08-04T05:00:01.071Z,101337.20
2018-08-04T05:03:07.505Z,101336.61
2018-08-04T05:06:13.931Z,101337.20
2018-08-04T05:09:19.950Z,101334.74
2018-08-04T05:12:26.566Z,101338.30
2018-08-04T05:15:32.754Z,101336.28
2018-08-04T05:18:38.961Z,101338.87
2018-08-04T05:21:44.118Z,101342.08
2018-08-04T05:24:49.287Z,101341.63
2018-08-04T05:27:55.007Z,101346.59
2018-08-04T05:31:01.753Z,101344.34
2018-08-04T05:34:07.711Z,101346.14
2018-08-04T05:37:14.403Z,101345.19
2018-08-04T05:40:20.481Z,101341.27
2018-08-04T05:43:25.971Z,101348.63
2018-08-04T05:46:31.234Z,101342.09
2018-08-04T05:49:37.284Z,101358.82
2018-08-04T05:52:43.017Z,101357.62
2018-08-04T05:55:49.342Z,101360.45
2018-08-04T05:58:55.098Z,101361.52
2018-08-04T06:02:01.325Z,101358.92
2018-08-04T06:05:07.437Z,101360.33
2018-08-04T06:08:12.566Z,101364.47
2018-08-04T06:11:18.209Z,101365.78
2018-08-04T06:14:23.454Z,101368.48
2018-08-04T06:17:30.824Z,101373.49
2018-08-04T06:20:36.571Z,101372.55
2018-08-04T06:23:42.641Z,101379.55
2018-08-04T06:26:49.866Z,101374.78
2018-08-04T06:29:55.854Z,101376.09
2018-08-04T06:33:00.989Z,101374.28
2018-08-04T06:36:06.193Z,101378.19
2018-08-04T06:39:11.322Z,101382.08
2018-08-04T06:42:16.477Z,101383.73
2018-08-04T06:45:22.585Z,101383.70
2018-08-04T06:48:28.367Z,101382.39
2018-08-04T06:51:33.827Z,101375.83
2018-08-04T06:54:40.661Z,101383.17
2018-08-04T06:57:46.334Z,101387.05
2018-08-04T07:00:51.813Z,101381.95
2018-08-04T07:03:57.878Z,101383.25
2018-08-04T07:07:04.358Z,101380.62
2018-08-04T07:10:11.493Z,101378.92
2018-08-04T07:13:18.205Z,101378.91
2018-08-04T07:16:24.218Z,101373.28
2018-08-04T07:19:30.062Z,101386.81
2018-08-04T07:22:36.241Z,101388.42
2018-08-04T07:25:42.219Z,101393.63
2018-08-04T07:28:48.328Z,101394.88
2018-08-04T07:31:55.698Z,101396.17
2018-08-04T07:35:01.719Z,101396.94
2018-08-04T07:38:06.976Z,101399.19
2018-08-04T07:41:13.072Z,101401.41
2018-08-04T07:44:18.545Z,101394.11
2018-08-04T07:47:24.555Z,101391.81
2018-08-04T07:50:29.970Z,101397.13
2018-08-04T07:53:35.105Z,101399.27
2018-08-04T07:56:41.887Z,101404.09
2018-08-04T07:59:47.621Z,101404.05
2018-08-04T08:02:52.839Z,101407.57
2018-08-04T08:05:58.306Z,101399.55
2018-08-04T08:09:04.969Z,101403.06
2018-08-04T08:12:10.314Z,101403.37
2018-08-04T08:15:15.406Z,101407.13
2018-08-04T08:18:20.872Z,101402.64
2018-08-04T08:21:26.722Z,101405.08
2018-08-04T08:24:32.499Z,101409.14
2018-08-04T08:27:38.195Z,101401.09
2018-08-04T08:30:44.157Z,101399.64
2018-08-04T08:33:51.619Z,101393.70
2018-08-04T08:36:57.551Z,101395.84
2018-08-04T08:40:03.297Z,101391.43
2018-08-04T08:43:08.745Z,101384.53
2018-08-04T08:46:14.952Z,101387.30
2018-08-04T08:49:20.899Z,101385.83
2018-08-04T08:52:26.397Z,101387.47
2018-08-04T08:55:31.594Z,101383.89
2018-08-04T08:58:36.400Z,101383.05
2018-08-04T09:01:41.947Z,101382.72
2018-08-04T09:04:47.383Z,101377.08
2018-08-04T09:07:52.510Z,101377.04
2018-08-04T09:10:58.204Z,101382.25
2018-08-04T09:14:04.197Z,101377.30
2018-08-04T09:17:10.069Z,101383.69
2018-08-04T09:20:16.089Z,101372.16
2018-08-04T09:23:21.288Z,101371.47
2018-08-04T09:26:27.773Z,101378.16
2018-08-04T09:29:33.374Z,101380.41
2018-08-04T09:32:39.129Z,101379.02
2018-08-04T09:35:44.578Z,101377.84
2018-08-04T09:38:49.941Z,101380.23
2018-08-04T09:41:55.981Z,101376.41
2018-08-04T09:45:02.378Z,101371.24
2018-08-04T09:48:09.492Z,101368.20
2018-08-04T09:51:15.229Z,101362.69
2018-08-04T09:54:20.357Z,101364.63
2018-08-04T09:57:26.775Z,101365.02
2018-08-04T10:00:38.113Z,101367.20
2018-08-04T10:03:43.750Z,101362.44
2018-08-04T10:06:48.568Z,101356.05
2018-08-04T10:09:53.824Z,101347.53
2018-08-04T10:13:00.199Z,101357.30
2018-08-04T10:16:05.706Z,101361.27
2018-08-04T10:19:10.879Z,101369.83
2018-08-04T10:22:16.004Z,101371.14
2018-08-04T10:25:21.443Z,101368.70
2018-08-04T10:28:28.409Z,101357.17
2018-08-04T10:31:34.325Z,101353.08
2018-08-04T10:34:39.741Z,101350.11
2018-08-04T10:37:44.889Z,101350.09
2018-08-04T10:40:50.653Z,101350.45
2018-08-04T10:43:56.637Z,101350.27
2018-08-04T10:47:02.843Z,101346.81
2018-08-04T10:50:08.854Z,101351.31
2018-08-04T10:53:14.571Z,101347.98
2018-08-04T10:56:20.320Z,101342.73
2018-08-04T10:59:26.509Z,101344.03
2018-08-04T11:02:33.546Z,101341.70
2018-08-04T11:05:39.278Z,101338.43
2018-08-04T11:08:44.461Z,101332.97
2018-08-04T11:11:51.298Z,101339.22
2018-08-04T11:14:57.072Z,101333.13
2018-08-04T11:18:03.214Z,101332.81
2018-08-04T11:21:09.242Z,101329.50
2018-08-04T11:24:14.869Z,101318.77
2018-08-04T11:27:21.018Z,101322.56
2018-08-04T11:30:26.194Z,101323.38
2018-08-04T11:33:32.138Z,101318.75
2018-08-04T11:36:36.949Z,101315.45
2018-08-04T11:39:42.759Z,101322.70
2018-08-04T11:42:47.876Z,101324.50
2018-08-04T11:45:53.344Z,101317.06
2018-08-04T11:48:58.147Z,101319.53
2018-08-04T11:52:03.756Z,101323.28
2018-08-04T11:55:09.708Z,101320.30
2018-08-04T11:58:15.440Z,101317.95
2018-08-04T12:01:22.361Z,101319.59
2018-08-04T12:04:29.505Z,101314.10
2018-08-04T12:07:36.176Z,101310.96
2018-08-04T12:10:42.351Z,101301.19
2018-08-04T12:13:47.301Z,101309.25
2018-08-04T12:16:52.419Z,101310.85
2018-08-04T12:19:58.255Z,101303.45
2018-08-04T12:23:03.930Z,101308.20
2018-08-04T12:26:09.021Z,101306.02
2018-08-04T12:29:14.927Z,101302.23
2018-08-04T12:32:19.762Z,101299.59
2018-08-04T12:35:26.364Z,101299.87
2018-08-04T12:38:32.157Z,101293.39
2018-08-04T12:41:37.436Z,101299.31
2018-08-04T12:44:43.412Z,101291.34
2018-08-04T12:47:48.250Z,101292.67
2018-08-04T12:50:54.929Z,101298.13
2018-08-04T12:53:59.785Z,101295.67
2018-08-04T12:57:05.268Z,101299.00
2018-08-04T13:00:10.496Z,101290.93
2018-08-04T13:03:16.271Z,101290.08
2018-08-04T13:06:22.723Z,101293.08
2018-08-04T13:09:28.509Z,101278.59
2018-08-04T13:12:34.513Z,101281.09
2018-08-04T13:15:40.433Z,101280.60
2018-08-04T13:18:45.258Z,101283.11
2018-08-04T13:21:51.023Z,101281.14
2018-08-04T13:24:56.963Z,101276.68
2018-08-04T13:28:03.965Z,101281.47
2018-08-04T13:31:09.218Z,101273.72
2018-08-04T13:34:14.065Z,101278.50
2018-08-04T13:37:20.748Z,101275.36
2018-08-04T13:40:26.794Z,101277.00
2018-08-04T13:43:32.615Z,101272.72
2018-08-04T13:46:38.896Z,101273.90
2018-08-04T13:49:44.550Z,101274.39
2018-08-04T13:52:49.705Z,101274.39
2018-08-04T13:55:54.556Z,101269.94
2018-08-04T13:58:59.408Z,101270.44
2018-08-04T14:02:04.463Z,101269.94
2018-08-04T14:05:11.699Z,101269.27
2018-08-04T14:08:17.146Z,101285.76
2018-08-04T14:11:22.440Z,101277.53
2018-08-04T14:14:28.276Z,101273.69
2018-08-04T14:17:33.592Z,101271.55
2018-08-04T14:20:38.553Z,101275.70
2018-08-04T14:23:45.339Z,101274.88
2018-08-04T14:26:51.314Z,101275.88
2018-08-04T14:29:57.060Z,101264.66
2018-08-04T14:33:03.833Z,101268.81
2018-08-04T14:36:09.277Z,101263.02
2018-08-04T14:39:14.527Z,101260.70
2018-08-04T14:42:19.701Z,101263.98
2018-08-04T14:45:25.621Z,101259.34
2018-08-04T14:48:30.817Z,101254.73
2018-08-04T14:51:36.011Z,101261.65
2018-08-04T14:54:41.193Z,101255.19
2018-08-04T14:57:47.294Z,101242.94
2018-08-04T15:00:52.807Z,101243.42
2018-08-04T15:03:57.656Z,101248.30
2018-08-04T15:07:02.513Z,101249.75
2018-08-04T15:10:08.206Z,101246.10
2018-08-04T15:13:14.359Z,101242.44
2018-08-04T15:16:21.089Z,101247.36
2018-08-04T15:19:26.624Z,101242.26
2018-08-04T15:22:31.818Z,101241.25
2018-08-04T15:25:36.986Z,101240.62
2018-08-04T15:28:43.158Z,101243.59
2018-08-04T15:31:48.009Z,101246.10
2018-08-04T15:34:53.633Z,101246.97
2018-08-04T15:38:03.968Z,101244.02
2018-08-04T15:41:09.921Z,101243.56
2018-08-04T15:44:15.696Z,101245.56
2018-08-04T15:47:20.864Z,101248.40
2018-08-04T15:50:26.431Z,101245.98
2018-08-04T15:53:32.335Z,101248.48
2018-08-04T15:56:38.312Z,101252.73
2018-08-04T15:59:43.233Z,101255.42
2018-08-04T16:02:48.078Z,101252.32
2018-08-04T16:05:52.906Z,101251.01
2018-08-04T16:08:58.461Z,101253.83
2018-08-04T16:12:03.335Z,101258.14
2018-08-04T16:15:08.730Z,101258.33
2018-08-04T16:18:13.573Z,101259.47
2018-08-04T16:21:19.018Z,101262.14
2018-08-04T16:24:28.052Z,101260.72
2018-08-04T16:27:33.613Z,101258.26
2018-08-04T16:30:39.371Z,101263.07
2018-08-04T16:33:44.626Z,101264.25
2018-08-04T16:36:50.226Z,101268.23
2018-08-04T16:39:56.113Z,101265.09
2018-08-04T16:43:00.970Z,101269.41
2018-08-04T16:46:07.903Z,101270.58
2018-08-04T16:49:13.382Z,101274.73
2018-08-04T16:52:18.556Z,101276.39
2018-08-04T16:55:24.350Z,101274.60
2018-08-04T16:58:29.232Z,101285.98
2018-08-04T17:01:34.965Z,101280.41
2018-08-04T17:04:40.958Z,101279.10
2018-08-04T17:07:46.709Z,101280.25
2018-08-04T17:10:52.827Z,101289.67
2018-08-04T17:13:57.673Z,101289.97
2018-08-04T17:17:05.313Z,101297.08
2018-08-04T17:20:10.777Z,101297.55
2018-08-04T17:23:16.601Z,101297.73
2018-08-04T17:26:22.013Z,101302.83
2018-08-04T17:29:27.764Z,101315.50
2018-08-04T17:32:34.365Z,101313.21
2018-08-04T17:35:40.146Z,101312.04
2018-08-04T17:38:46.260Z,101313.53
2018-08-04T17:41:52.158Z,101315.48
2018-08-04T17:44:58.282Z,101321.91
2018-08-04T17:48:04.382Z,101318.89
2018-08-04T17:51:10.511Z,101316.91
2018-08-04T17:54:16.313Z,101322.16
2018-08-04T17:57:21.541Z,101320.48
2018-08-04T18:00:27.702Z,101326.23
2018-08-04T18:03:34.501Z,101333.93
2018-08-04T18:06:40.201Z,101331.95
2018-08-04T18:09:45.118Z,101329.94
2018-08-04T18:12:49.978Z,101325.00
2018-08-04T18:15:54.862Z,101327.09
2018-08-04T18:18:59.753Z,101328.40
2018-08-04T18:22:04.996Z,101329.63
2018-08-04T18:25:10.896Z,101328.10
2018-08-04T18:28:16.655Z,101330.71
2018-08-04T18:31:21.841Z,101328.69
2018-08-04T18:34:27.234Z,101328.52
2018-08-04T18:37:33.862Z,101334.70
2018-08-04T18:40:40.882Z,101338.75
2018-08-04T18:43:46.710Z,101348.25
2018-08-04T18:46:52.340Z,101365.78
2018-08-04T18:49:58.025Z,101366.73
2018-08-04T18:53:03.287Z,101348.94
2018-08-04T18:56:09.282Z,101333.92
2018-08-04T18:59:15.901Z,101338.63
2018-08-04T19:02:21.917Z,101339.41
2018-08-04T19:05:28.333Z,101349.34
2018-08-04T19:08:33.289Z,101345.31
2018-08-04T19:11:38.948Z,101346.70
2018-08-04T19:14:44.881Z,101348.44
2018-08-04T19:17:50.085Z,101344.41
2018-08-04T19:20:57.101Z,101343.34
2018-08-04T19:24:02.861Z,101351.11
2018-08-04T19:27:09.622Z,101351.34
2018-08-04T19:30:15.277Z,101355.86
2018-08-04T19:33:20.518Z,101359.23
2018-08-04T19:36:26.290Z,101358.97
2018-08-04T19:39:32.029Z,101362.53
2018-08-04T19:42:36.911Z,101358.78
2018-08-04T19:45:42.115Z,101363.13
2018-08-04T19:48:49.193Z,101372.26
2018-08-04T19:51:54.369Z,101365.39
2018-08-04T19:55:01.187Z,101372.84
2018-08-04T19:58:08.073Z,101373.39
2018-08-04T20:01:13.870Z,101371.17
2018-08-04T20:04:19.694Z,101369.95
2018-08-04T20:07:24.606Z,101372.16
2018-08-04T20:10:29.977Z,101375.55
2018-08-04T20:13:34.827Z,101383.08
2018-08-04T20:16:40.781Z,101382.55
2018-08-04T20:19:45.621Z,101382.59
2018-08-04T20:22:50.481Z,101382.55
2018-08-04T20:25:55.764Z,101380.45
2018-08-04T20:29:01.560Z,101384.19
2018-08-04T20:32:08.135Z,101395.64
2018-08-04T20:35:13.026Z,101406.20
2018-08-04T20:38:18.814Z,101410.23
2018-08-04T20:41:23.657Z,101403.42
2018-08-04T20:44:29.249Z,101394.62
2018-08-04T20:47:35.260Z,101391.73
2018-08-04T20:50:40.133Z,101394.05
2018-08-04T20:53:45.697Z,101389.44
2018-08-04T20:56:50.866Z,101391.75
2018-08-04T20:59:56.660Z,101393.28
2018-08-04T21:03:02.425Z,101392.11
2018-08-04T21:06:08.332Z,101392.42
2018-08-04T21:09:13.152Z,101389.98
2018-08-04T21:12:19.944Z,101385.30
2018-08-04T21:15:26.637Z,101379.75
2018-08-04T21:18:32.507Z,101373.97
2018-08-04T21:21:37.366Z,101384.60
2018-08-04T21:24:43.221Z,101381.22
2018-08-04T21:27:50.083Z,101381.08
2018-08-04T21:30:56.023Z,101395.18
2018-08-04T21:34:01.827Z,101388.41
2018-08-04T21:37:06.709Z,101384.45
2018-08-04T21:40:12.333Z,101381.59
2018-08-04T21:43:17.627Z,101388.88
2018-08-04T21:46:22.781Z,101390.34
2018-08-04T21:49:27.989Z,101393.09
2018-08-04T21:52:33.873Z,101396.80
2018-08-04T21:55:38.709Z,101394.47
2018-08-04T21:58:45.437Z,101400.92
2018-08-04T22:01:53.824Z,101396.44
2018-08-04T22:04:59.803Z,101391.45
2018-08-04T22:08:16.331Z,101397.55
2018-08-04T22:11:22.509Z,101402.95
2018-08-04T22:14:27.731Z,101400.92
2018-08-04T22:17:32.881Z,101414.00
2018-08-04T22:20:39.032Z,101410.46
2018-08-04T22:23:43.885Z,101411.16
2018-08-04T22:26:50.554Z,101409.42
2018-08-04T22:29:56.893Z,101414.52
2018-08-04T22:33:02.873Z,101416.08
2018-08-04T22:36:08.642Z,101411.47
2018-08-04T22:39:13.893Z,101414.94
2018-08-04T22:42:20.681Z,101410.67
2018-08-04T22:46:04.154Z,101416.37
2018-08-04T22:49:09.014Z,101412.26
2018-08-04T22:52:14.307Z,101421.14
2018-08-04T22:55:21.076Z,101416.42
2018-08-04T22:58:27.874Z,101411.55
2018-08-04T23:01:33.343Z,101413.70
2018-08-04T23:04:38.502Z,101415.96
2018-08-04T23:07:44.282Z,101411.20
2018-08-04T23:10:49.802Z,101409.80
2018-08-04T23:13:55.547Z,101416.19
2018-08-04T23:17:00.397Z,101420.56
2018-08-04T23:20:05.863Z,101416.19
2018-08-04T23:23:12.031Z,101415.11
2018-08-04T23:26:16.951Z,101416.53
2018-08-04T23:29:22.325Z,101418.55
2018-08-04T23:32:27.960Z,101415.33
2018-08-04T23:35:32.910Z,101413.69
2018-08-04T23:38:37.818Z,101411.66
2018-08-04T23:41:42.974Z,101416.40
2018-08-04T23:44:49.016Z,101418.78
2018-08-04T23:47:54.832Z,101426.22
2018-08-04T23:51:00.728Z,101427.17
2018-08-04T23:54:06.561Z,101427.53
2018-08-04T23:57:11.396Z,101428.72
